createdAt,value
2019-03-16T00:01:56.149Z,0.80
2019-03-16T00:04:15.468Z,0.80
2019-03-16T00:06:45.314Z,0.60
2019-03-16T00:09:15.217Z,0.70
2019-03-16T00:11:45.215Z,0.80
2019-03-16T00:14:15.141Z,0.60
2019-03-16T00:16:45.058Z,0.60
2019-03-16T00:19:14.938Z,0.80
2019-03-16T00:21:45.874Z,0.73
2019-03-16T00:24:16.881Z,0.60
2019-03-16T00:26:46.809Z,0.70
2019-03-16T00:29:16.638Z,0.80
2019-03-16T00:31:46.480Z,0.83
2019-03-16T00:34:16.411Z,0.53
2019-03-16T00:36:46.326Z,0.60
2019-03-16T00:39:16.210Z,0.73
2019-03-16T00:41:46.178Z,0.70
2019-03-16T00:44:16.038Z,0.70
2019-03-16T00:46:45.964Z,0.80
2019-03-16T00:49:15.892Z,0.90
2019-03-16T00:51:45.720Z,0.83
2019-03-16T00:54:15.731Z,0.60
2019-03-16T00:56:45.635Z,0.70
2019-03-16T00:59:15.497Z,0.70
2019-03-16T01:01:45.409Z,0.90
2019-03-16T01:04:15.552Z,0.80
2019-03-16T01:06:45.490Z,0.60
2019-03-16T01:09:15.320Z,0.50
2019-03-16T01:11:45.173Z,0.70
2019-03-16T01:14:15.065Z,0.60
2019-03-16T01:16:44.919Z,0.80
2019-03-16T01:19:14.736Z,0.90
2019-03-16T01:21:44.647Z,0.70
2019-03-16T01:24:14.478Z,0.70
2019-03-16T01:26:44.384Z,0.60
2019-03-16T01:29:14.295Z,0.80
2019-03-16T01:31:44.261Z,1.00
2019-03-16T01:34:14.174Z,1.00
2019-03-16T01:36:43.994Z,0.67
2019-03-16T01:39:14.008Z,0.83
2019-03-16T01:41:43.935Z,1.03
2019-03-16T01:44:15.564Z,0.70
2019-03-16T01:46:45.504Z,0.80
2019-03-16T01:49:15.690Z,0.70
2019-03-16T01:51:47.299Z,0.73
2019-03-16T01:54:17.222Z,0.90
2019-03-16T01:56:47.247Z,0.60
2019-03-16T01:59:17.126Z,0.83
2019-03-16T02:01:49.369Z,0.90
2019-03-16T02:04:18.538Z,0.90
2019-03-16T02:06:48.443Z,0.80
2019-03-16T02:09:18.308Z,0.90
2019-03-16T02:11:48.144Z,0.87
2019-03-16T02:14:18.224Z,0.90
2019-03-16T02:16:48.085Z,0.80
2019-03-16T02:19:18.004Z,0.83
2019-03-16T02:21:48.169Z,0.60
2019-03-16T02:24:18.374Z,0.60
2019-03-16T02:26:48.188Z,0.77
2019-03-16T02:29:18.171Z,0.80
2019-03-16T02:31:48.003Z,0.80
2019-03-16T02:34:17.997Z,0.90
2019-03-16T02:36:54.367Z,0.50
2019-03-16T02:39:24.241Z,0.80
2019-03-16T02:41:54.132Z,0.80
2019-03-16T02:44:23.985Z,0.50
2019-03-16T02:46:53.817Z,0.80
2019-03-16T02:49:23.727Z,0.80
2019-03-16T02:51:53.554Z,0.83
2019-03-16T02:54:23.459Z,0.70
2019-03-16T02:56:53.316Z,0.90
2019-03-16T02:59:23.128Z,0.63
2019-03-16T03:01:53.141Z,0.80
2019-03-16T03:04:22.981Z,0.70
2019-03-16T03:06:53.014Z,0.80
2019-03-16T03:09:22.816Z,0.70
2019-03-16T03:11:52.730Z,0.70
2019-03-16T03:14:22.570Z,0.83
2019-03-16T03:16:52.487Z,0.70
2019-03-16T03:19:22.413Z,0.90
2019-03-16T03:21:52.232Z,0.80
2019-03-16T03:24:22.077Z,0.80
2019-03-16T03:26:51.967Z,0.70
2019-03-16T03:29:21.829Z,0.90
2019-03-16T03:31:51.657Z,0.80
2019-03-16T03:34:21.585Z,0.80
2019-03-16T03:36:51.443Z,0.60
2019-03-16T03:39:21.251Z,0.60
2019-03-16T03:41:51.168Z,0.70
2019-03-16T03:44:21.149Z,0.53
2019-03-16T03:46:51.054Z,0.60
2019-03-16T03:49:20.982Z,0.60
2019-03-16T03:51:50.822Z,0.70
2019-03-16T03:54:20.782Z,0.70
2019-03-16T03:56:50.757Z,0.60
2019-03-16T03:59:20.657Z,0.70
2019-03-16T04:01:50.619Z,0.70
2019-03-16T04:04:20.696Z,0.80
2019-03-16T04:06:50.690Z,0.63
2019-03-16T04:09:20.755Z,0.60
2019-03-16T04:11:50.584Z,0.57
2019-03-16T04:14:20.726Z,0.80
2019-03-16T04:16:50.552Z,0.70
2019-03-16T04:19:20.564Z,0.60
2019-03-16T04:21:50.482Z,0.70
2019-03-16T04:24:20.436Z,1.20
2019-03-16T04:26:50.260Z,0.60
2019-03-16T04:29:20.217Z,0.70
2019-03-16T04:31:50.095Z,0.77
2019-03-16T04:34:29.008Z,0.60
2019-03-16T04:36:51.539Z,0.70
2019-03-16T04:39:21.517Z,0.60
2019-03-16T04:41:51.441Z,0.70
2019-03-16T04:44:21.586Z,1.00
2019-03-16T04:46:51.562Z,0.80
2019-03-16T04:49:21.449Z,0.63
2019-03-16T04:51:51.378Z,0.73
2019-03-16T04:54:21.293Z,0.70
2019-03-16T04:56:51.310Z,0.70
2019-03-16T04:59:21.332Z,0.60
2019-03-16T05:01:51.230Z,0.70
2019-03-16T05:04:21.068Z,0.60
2019-03-16T05:06:51.939Z,0.60
2019-03-16T05:09:21.763Z,0.70
2019-03-16T05:11:51.613Z,0.70
2019-03-16T05:14:21.594Z,0.60
2019-03-16T05:16:51.425Z,0.50
2019-03-16T05:19:21.784Z,0.40
2019-03-16T05:21:51.752Z,0.60
2019-03-16T05:24:21.570Z,0.60
2019-03-16T05:26:51.517Z,0.50
2019-03-16T05:29:21.485Z,0.70
2019-03-16T05:31:51.419Z,0.80
2019-03-16T05:34:21.364Z,0.50
2019-03-16T05:36:51.197Z,0.60
2019-03-16T05:39:21.063Z,0.50
2019-03-16T05:41:50.904Z,0.60
2019-03-16T05:44:20.820Z,0.60
2019-03-16T05:46:50.635Z,0.60
2019-03-16T05:49:21.582Z,0.60
2019-03-16T05:51:51.412Z,0.60
2019-03-16T05:54:21.344Z,0.60
2019-03-16T05:56:51.238Z,0.50
2019-03-16T05:59:21.213Z,0.60
2019-03-16T06:01:51.109Z,0.57
2019-03-16T06:04:21.006Z,0.80
2019-03-16T06:06:50.908Z,0.60
2019-03-16T06:09:20.748Z,0.77
2019-03-16T06:11:50.712Z,0.57
2019-03-16T06:14:20.825Z,0.60
2019-03-16T06:16:50.710Z,0.60
2019-03-16T06:19:20.538Z,0.60
2019-03-16T06:21:50.698Z,0.60
2019-03-16T06:24:20.517Z,0.60
2019-03-16T06:26:50.449Z,0.60
2019-03-16T06:29:20.280Z,0.70
2019-03-16T06:31:50.203Z,0.60
2019-03-16T06:34:20.122Z,0.60
2019-03-16T06:36:50.814Z,0.63
2019-03-16T06:39:20.633Z,0.60
2019-03-16T06:41:50.519Z,0.50
2019-03-16T06:44:20.738Z,0.80
2019-03-16T06:46:50.572Z,0.60
2019-03-16T06:49:20.506Z,0.50
2019-03-16T06:51:50.344Z,0.93
2019-03-16T06:54:20.277Z,0.60
2019-03-16T06:56:50.102Z,0.80
2019-03-16T06:59:20.131Z,0.80
2019-03-16T07:01:50.032Z,0.60
2019-03-16T07:04:20.043Z,0.70
2019-03-16T07:06:49.861Z,0.70
2019-03-16T07:09:19.885Z,0.60
2019-03-16T07:11:49.899Z,0.80
2019-03-16T07:14:19.744Z,0.70
2019-03-16T07:17:01.318Z,0.60
2019-03-16T07:19:21.143Z,0.80
2019-03-16T07:21:51.076Z,0.57
2019-03-16T07:24:20.900Z,0.47
2019-03-16T07:26:50.733Z,0.53
2019-03-16T07:29:20.575Z,0.90
2019-03-16T07:31:50.501Z,0.70
2019-03-16T07:34:20.380Z,0.50
2019-03-16T07:36:50.221Z,0.50
2019-03-16T07:39:21.037Z,0.70
2019-03-16T07:41:50.905Z,0.80
2019-03-16T07:44:20.868Z,0.80
2019-03-16T07:46:50.851Z,0.97
2019-03-16T07:49:20.711Z,0.70
2019-03-16T07:51:50.615Z,0.80
2019-03-16T07:54:20.671Z,0.70
2019-03-16T07:56:50.795Z,0.73
2019-03-16T07:59:20.657Z,0.60
2019-03-16T08:01:50.714Z,0.70
2019-03-16T08:04:20.535Z,0.70
2019-03-16T08:06:50.428Z,0.83
2019-03-16T08:09:20.462Z,0.63
2019-03-16T08:11:50.417Z,0.83
2019-03-16T08:14:21.014Z,0.60
2019-03-16T08:16:50.920Z,0.70
2019-03-16T08:19:20.906Z,0.63
2019-03-16T08:21:50.809Z,0.50
2019-03-16T08:24:20.635Z,0.90
2019-03-16T08:26:50.527Z,0.63
2019-03-16T08:29:20.417Z,0.77
2019-03-16T08:31:50.316Z,0.60
2019-03-16T08:34:20.252Z,0.67
2019-03-16T08:36:50.086Z,0.83
2019-03-16T08:39:19.910Z,0.70
2019-03-16T08:41:49.768Z,0.70
2019-03-16T08:44:19.697Z,1.23
2019-03-16T08:46:49.577Z,0.70
2019-03-16T08:49:19.533Z,0.40
2019-03-16T08:51:49.357Z,0.80
2019-03-16T08:54:19.252Z,0.40
2019-03-16T08:56:49.070Z,0.80
2019-03-16T08:59:19.026Z,0.87
2019-03-16T09:01:48.862Z,0.73
2019-03-16T09:04:18.717Z,0.60
2019-03-16T09:06:52.612Z,0.87
2019-03-16T09:09:21.172Z,0.60
2019-03-16T09:11:51.101Z,0.70
2019-03-16T09:14:20.933Z,0.47
2019-03-16T09:16:50.778Z,0.50
2019-03-16T09:19:20.623Z,0.70
2019-03-16T09:21:51.600Z,0.60
2019-03-16T09:24:21.676Z,0.63
2019-03-16T09:26:51.665Z,0.70
2019-03-16T09:29:22.532Z,0.70
2019-03-16T09:31:52.469Z,0.77
2019-03-16T09:34:22.305Z,0.67
2019-03-16T09:36:52.243Z,0.70
2019-03-16T09:39:22.157Z,0.70
2019-03-16T09:41:52.098Z,0.70
2019-03-16T09:44:23.491Z,0.50
2019-03-16T09:46:53.683Z,0.60
2019-03-16T09:49:23.615Z,0.70
2019-03-16T09:51:53.557Z,0.60
2019-03-16T09:54:23.559Z,0.60
2019-03-16T09:57:01.064Z,0.50
2019-03-16T09:59:25.377Z,0.40
2019-03-16T10:01:55.223Z,0.53
2019-03-16T10:04:25.134Z,0.57
2019-03-16T10:06:55.100Z,0.80
2019-03-16T10:09:24.938Z,0.60
2019-03-16T10:11:54.879Z,0.50
2019-03-16T10:14:24.801Z,0.60
2019-03-16T10:16:54.793Z,0.43
2019-03-16T10:19:24.800Z,0.57
2019-03-16T10:21:54.795Z,0.70
2019-03-16T10:24:24.620Z,0.60
2019-03-16T10:26:54.661Z,0.53
2019-03-16T10:29:24.527Z,0.67
2019-03-16T10:31:54.452Z,0.70
2019-03-16T10:34:24.382Z,1.00
2019-03-16T10:36:54.210Z,0.60
2019-03-16T10:39:24.082Z,0.63
2019-03-16T10:41:53.899Z,0.60
2019-03-16T10:44:23.750Z,0.87
2019-03-16T10:46:53.664Z,0.60
2019-03-16T10:49:23.665Z,0.60
2019-03-16T10:51:53.568Z,0.70
2019-03-16T10:54:23.497Z,0.57
2019-03-16T10:56:53.386Z,0.70
2019-03-16T10:59:23.328Z,0.67
2019-03-16T11:01:53.320Z,0.57
2019-03-16T11:04:23.191Z,0.60
2019-03-16T11:06:53.021Z,0.53
2019-03-16T11:09:22.895Z,0.90
2019-03-16T11:11:52.848Z,0.60
2019-03-16T11:14:22.707Z,0.73
2019-03-16T11:16:52.552Z,0.57
2019-03-16T11:19:22.384Z,0.70
2019-03-16T11:21:52.323Z,0.77
2019-03-16T11:24:22.251Z,0.63
2019-03-16T11:26:52.084Z,0.80
2019-03-16T11:29:21.997Z,0.83
2019-03-16T11:31:51.939Z,0.80
2019-03-16T11:34:21.932Z,0.70
2019-03-16T11:36:51.803Z,0.90
2019-03-16T11:39:21.606Z,0.70
2019-03-16T11:41:51.465Z,0.83
2019-03-16T11:44:21.428Z,0.77
2019-03-16T11:46:51.303Z,0.90
2019-03-16T11:49:21.159Z,0.70
2019-03-16T11:51:50.992Z,0.67
2019-03-16T11:54:20.855Z,0.57
2019-03-16T11:56:50.691Z,0.80
2019-03-16T11:59:21.972Z,1.00
2019-03-16T12:01:52.031Z,0.97
2019-03-16T12:04:21.968Z,0.97
2019-03-16T12:06:51.882Z,0.60
2019-03-16T12:09:21.903Z,0.63
2019-03-16T12:11:51.884Z,0.80
2019-03-16T12:14:21.729Z,0.83
2019-03-16T12:16:51.756Z,0.80
2019-03-16T12:19:21.758Z,0.60
2019-03-16T12:21:51.665Z,0.77
2019-03-16T12:24:21.504Z,0.67
2019-03-16T12:26:51.447Z,0.97
2019-03-16T12:29:33.141Z,0.83
2019-03-16T12:31:53.002Z,0.60
2019-03-16T12:34:22.835Z,0.70
2019-03-16T12:36:52.688Z,0.70
2019-03-16T12:39:22.558Z,0.53
2019-03-16T12:41:52.476Z,1.10
2019-03-16T12:44:22.379Z,0.60
2019-03-16T12:46:52.278Z,1.13
2019-03-16T12:49:22.126Z,0.90
2019-03-16T12:51:51.952Z,0.80
2019-03-16T12:54:21.784Z,0.70
2019-03-16T12:56:51.626Z,0.70
2019-03-16T12:59:21.537Z,0.60
2019-03-16T13:01:51.359Z,0.80
2019-03-16T13:04:21.313Z,0.90
2019-03-16T13:06:52.379Z,0.70
2019-03-16T13:09:22.302Z,0.60
2019-03-16T13:11:52.203Z,0.70
2019-03-16T13:14:22.643Z,0.60
2019-03-16T13:16:52.780Z,0.90
2019-03-16T13:19:22.624Z,0.93
2019-03-16T13:21:52.601Z,0.60
2019-03-16T13:24:22.468Z,0.90
2019-03-16T13:26:52.394Z,0.90
2019-03-16T13:29:23.355Z,0.77
2019-03-16T13:31:53.282Z,0.80
2019-03-16T13:34:23.303Z,0.70
2019-03-16T13:36:53.195Z,0.70
2019-03-16T13:39:23.314Z,0.57
2019-03-16T13:41:53.314Z,1.00
2019-03-16T13:44:23.191Z,0.80
2019-03-16T13:46:53.171Z,0.70
2019-03-16T13:49:23.129Z,0.70
2019-03-16T13:51:52.989Z,0.97
2019-03-16T13:54:23.148Z,0.77
2019-03-16T13:56:52.982Z,0.80
2019-03-16T13:59:22.906Z,0.50
2019-03-16T14:01:52.739Z,0.70
2019-03-16T14:04:22.591Z,0.97
2019-03-16T14:06:52.429Z,0.40
2019-03-16T14:09:22.276Z,0.80
2019-03-16T14:11:52.381Z,0.80
2019-03-16T14:14:22.206Z,0.67
2019-03-16T14:16:52.057Z,0.70
2019-03-16T14:19:22.859Z,0.77
2019-03-16T14:21:52.728Z,0.67
2019-03-16T14:24:22.995Z,0.67
2019-03-16T14:26:53.297Z,0.80
2019-03-16T14:29:23.615Z,0.53
2019-03-16T14:31:53.532Z,0.70
2019-03-16T14:34:23.360Z,0.67
2019-03-16T14:36:53.271Z,0.80
2019-03-16T14:39:23.097Z,0.60
2019-03-16T14:41:53.023Z,0.60
2019-03-16T14:44:22.939Z,0.73
2019-03-16T14:46:52.904Z,0.73
2019-03-16T14:49:22.746Z,0.30
2019-03-16T14:51:52.605Z,0.53
2019-03-16T14:54:22.455Z,0.57
2019-03-16T14:56:53.468Z,0.63
2019-03-16T14:59:24.384Z,0.70
2019-03-16T15:01:54.335Z,0.60
2019-03-16T15:04:24.211Z,0.77
2019-03-16T15:06:54.134Z,1.10
2019-03-16T15:09:25.255Z,1.13
2019-03-16T15:11:55.169Z,0.90
2019-03-16T15:14:25.165Z,1.07
2019-03-16T15:16:55.081Z,0.70
2019-03-16T15:19:25.163Z,0.80
2019-03-16T15:21:54.982Z,0.60
2019-03-16T15:24:24.975Z,0.70
2019-03-16T15:26:54.959Z,0.80
2019-03-16T15:29:24.919Z,0.73
2019-03-16T15:31:54.986Z,0.90
2019-03-16T15:34:24.957Z,0.90
2019-03-16T15:36:54.802Z,0.90
2019-03-16T15:39:26.247Z,0.90
2019-03-16T15:41:56.166Z,0.80
2019-03-16T15:44:26.098Z,1.10
2019-03-16T15:46:55.995Z,0.70
2019-03-16T15:49:25.898Z,0.70
2019-03-16T15:51:55.735Z,0.90
2019-03-16T15:54:25.703Z,0.83
2019-03-16T15:56:55.650Z,0.90
2019-03-16T15:59:25.565Z,1.07
2019-03-16T16:01:55.437Z,0.80
2019-03-16T16:04:25.387Z,0.70
2019-03-16T16:06:55.411Z,0.60
2019-03-16T16:09:25.271Z,1.07
2019-03-16T16:11:55.113Z,0.70
2019-03-16T16:14:25.059Z,1.00
2019-03-16T16:16:54.882Z,0.83
2019-03-16T16:19:24.793Z,1.00
2019-03-16T16:21:54.647Z,0.83
2019-03-16T16:24:24.591Z,0.70
2019-03-16T16:26:54.523Z,0.80
2019-03-16T16:29:24.345Z,1.00
2019-03-16T16:31:54.273Z,1.00
2019-03-16T16:34:24.110Z,1.00
2019-03-16T16:36:54.065Z,1.10
2019-03-16T16:39:24.193Z,0.87
2019-03-16T16:41:54.108Z,0.90
2019-03-16T16:44:23.999Z,1.10
2019-03-16T16:46:53.861Z,1.23
2019-03-16T16:49:23.695Z,1.50
2019-03-16T16:51:53.542Z,1.83
2019-03-16T16:54:23.384Z,2.33
2019-03-16T16:56:53.363Z,2.00
2019-03-16T16:59:23.277Z,3.10
2019-03-16T17:01:53.103Z,2.70
2019-03-16T17:04:22.959Z,3.40
2019-03-16T17:06:52.890Z,2.90
2019-03-16T17:09:22.842Z,2.90
2019-03-16T17:11:52.823Z,2.70
2019-03-16T17:14:22.669Z,2.70
2019-03-16T17:16:52.492Z,2.00
2019-03-16T17:19:22.442Z,2.27
2019-03-16T17:21:52.366Z,2.00
2019-03-16T17:24:22.219Z,2.27
2019-03-16T17:26:52.135Z,2.17
2019-03-16T17:29:22.141Z,2.10
2019-03-16T17:31:52.151Z,2.53
2019-03-16T17:34:22.020Z,2.30
2019-03-16T17:36:51.882Z,2.20
2019-03-16T17:39:21.806Z,2.83
2019-03-16T17:41:51.727Z,3.30
2019-03-16T17:44:21.632Z,3.30
2019-03-16T17:46:51.522Z,3.17
2019-03-16T17:49:21.539Z,2.50
2019-03-16T17:51:51.367Z,2.03
2019-03-16T17:54:22.492Z,2.17
2019-03-16T17:56:52.340Z,2.40
2019-03-16T17:59:24.037Z,2.90
2019-03-16T18:01:55.118Z,2.60
2019-03-16T18:04:27.711Z,2.07
2019-03-16T18:06:57.001Z,2.40
2019-03-16T18:09:26.913Z,2.43
2019-03-16T18:11:56.859Z,2.50
2019-03-16T18:14:26.865Z,2.00
2019-03-16T18:16:56.794Z,1.90
2019-03-16T18:19:26.791Z,1.37
2019-03-16T18:21:56.724Z,1.50
2019-03-16T18:24:26.687Z,1.40
2019-03-16T18:26:56.537Z,1.60
2019-03-16T18:29:26.664Z,1.50
2019-03-16T18:32:07.225Z,1.40
2019-03-16T18:34:28.127Z,1.57
2019-03-16T18:36:58.208Z,1.13
2019-03-16T18:39:28.157Z,1.57
2019-03-16T18:41:58.125Z,1.60
2019-03-16T18:44:27.964Z,1.40
2019-03-16T18:46:57.922Z,1.40
2019-03-16T18:49:27.989Z,1.63
2019-03-16T18:51:58.113Z,1.30
2019-03-16T18:54:28.127Z,1.30
2019-03-16T18:56:58.092Z,1.30
2019-03-16T18:59:28.068Z,1.30
2019-03-16T19:01:57.968Z,1.43
2019-03-16T19:04:27.927Z,1.27
2019-03-16T19:06:58.063Z,1.50
2019-03-16T19:09:28.031Z,1.60
2019-03-16T19:11:57.865Z,1.60
2019-03-16T19:14:27.809Z,1.47
2019-03-16T19:16:57.847Z,1.60
2019-03-16T19:19:27.857Z,1.60
2019-03-16T19:21:57.919Z,1.37
2019-03-16T19:24:27.979Z,1.40
2019-03-16T19:26:57.925Z,1.50
2019-03-16T19:29:27.948Z,1.50
2019-03-16T19:31:57.935Z,1.47
2019-03-16T19:34:28.116Z,1.47
2019-03-16T19:36:58.053Z,1.30
2019-03-16T19:39:28.191Z,2.03
2019-03-16T19:41:58.052Z,1.80
2019-03-16T19:44:27.900Z,1.97
2019-03-16T19:46:57.768Z,1.50
2019-03-16T19:49:27.624Z,1.90
2019-03-16T19:51:57.499Z,1.53
2019-03-16T19:54:27.353Z,1.60
2019-03-16T19:56:57.187Z,1.50
2019-03-16T19:59:27.032Z,1.40
2019-03-16T20:01:56.988Z,1.50
2019-03-16T20:04:36.049Z,1.23
2019-03-16T20:06:58.606Z,1.30
2019-03-16T20:09:28.545Z,1.30
2019-03-16T20:11:58.487Z,1.23
2019-03-16T20:14:28.419Z,1.50
2019-03-16T20:16:58.378Z,1.23
2019-03-16T20:19:28.201Z,1.27
2019-03-16T20:21:58.238Z,1.50
2019-03-16T20:24:28.187Z,5.57
2019-03-16T20:26:58.115Z,1.30
2019-03-16T20:29:27.963Z,1.20
2019-03-16T20:31:58.756Z,1.40
2019-03-16T20:34:31.961Z,1.43
2019-03-16T20:37:00.686Z,1.17
2019-03-16T20:39:30.868Z,1.30
2019-03-16T20:42:01.097Z,1.20
2019-03-16T20:44:31.117Z,0.97
2019-03-16T20:47:00.979Z,1.30
2019-03-16T20:49:30.942Z,1.20
2019-03-16T20:52:00.889Z,1.20
2019-03-16T20:54:30.886Z,1.30
2019-03-16T20:57:00.735Z,1.13
2019-03-16T20:59:30.610Z,1.03
2019-03-16T21:02:00.532Z,0.90
2019-03-16T21:04:30.502Z,1.20
2019-03-16T21:07:00.331Z,1.17
2019-03-16T21:09:30.255Z,0.87
2019-03-16T21:12:00.184Z,1.00
2019-03-16T21:14:30.123Z,1.13
2019-03-16T21:16:59.954Z,1.40
2019-03-16T21:19:29.809Z,1.10
2019-03-16T21:21:59.713Z,1.27
2019-03-16T21:24:30.734Z,1.30
2019-03-16T21:27:00.632Z,1.27
2019-03-16T21:29:30.616Z,1.37
2019-03-16T21:32:00.589Z,1.10
2019-03-16T21:34:33.260Z,1.37
2019-03-16T21:37:02.036Z,1.40
2019-03-16T21:39:31.882Z,1.30
2019-03-16T21:42:01.818Z,1.30
2019-03-16T21:44:31.783Z,1.13
2019-03-16T21:47:01.616Z,1.20
2019-03-16T21:49:31.554Z,1.20
2019-03-16T21:52:02.875Z,1.20
2019-03-16T21:54:33.064Z,1.20
2019-03-16T21:57:03.024Z,1.00
2019-03-16T21:59:33.037Z,1.03
2019-03-16T22:02:02.968Z,1.00
2019-03-16T22:04:32.852Z,1.10
2019-03-16T22:07:03.869Z,1.07
2019-03-16T22:09:33.914Z,1.37
2019-03-16T22:12:03.830Z,1.07
2019-03-16T22:14:33.806Z,1.20
2019-03-16T22:17:03.797Z,1.43
2019-03-16T22:19:34.641Z,1.10
2019-03-16T22:22:04.653Z,1.37
2019-03-16T22:24:34.569Z,1.10
2019-03-16T22:27:04.517Z,1.20
2019-03-16T22:29:34.383Z,1.30
2019-03-16T22:32:04.293Z,1.07
2019-03-16T22:34:34.307Z,1.07
2019-03-16T22:37:04.165Z,1.30
2019-03-16T22:39:34.028Z,1.50
2019-03-16T22:42:04.060Z,1.50
2019-03-16T22:44:33.967Z,1.30
2019-03-16T22:47:04.040Z,1.43
2019-03-16T22:49:33.961Z,1.60
2019-03-16T22:52:04.987Z,1.10
2019-03-16T22:54:34.883Z,0.90
2019-03-16T22:57:04.918Z,1.40
2019-03-16T22:59:34.744Z,1.20
2019-03-16T23:02:05.144Z,1.30
2019-03-16T23:04:35.080Z,0.93
2019-03-16T23:07:05.022Z,1.50
2019-03-16T23:09:36.081Z,1.40
2019-03-16T23:12:06.075Z,1.17
2019-03-16T23:14:36.013Z,1.23
2019-03-16T23:17:05.945Z,1.20
2019-03-16T23:19:35.902Z,1.27
2019-03-16T23:22:05.893Z,1.50
2019-03-16T23:24:35.773Z,1.27
2019-03-16T23:27:05.777Z,1.37
2019-03-16T23:29:35.687Z,1.37
2019-03-16T23:32:05.694Z,1.37
2019-03-16T23:34:35.690Z,1.40
2019-03-16T23:37:05.667Z,1.23
2019-03-16T23:39:36.651Z,1.30
2019-03-16T23:42:06.628Z,1.17
2019-03-16T23:44:36.535Z,1.37
2019-03-16T23:47:06.456Z,1.50
2019-03-16T23:49:36.387Z,1.37
2019-03-16T23:52:06.360Z,1.07
2019-03-16T23:54:36.382Z,1.27
2019-03-16T23:57:06.376Z,1.10
2019-03-16T23:59:36.300Z,1.23
